sensor_id;sensor_type;location;lat;lon;timestamp;pressure;altitude;pressure_sealevel;temperature;humidity
29247;BME280;16272;48.188;9.964;2022-12-08T00:01:16;95316.47;;;3.30;67.36
29247;BME280;16272;48.188;9.964;2022-12-08T00:03:42;95314.44;;;3.45;67.34
29247;BME280;16272;48.188;9.964;2022-12-08T00:09:12;95309.41;;;3.76;66.11
29247;BME280;16272;48.188;9.964;2022-12-08T00:12:13;95308.94;;;3.71;65.97
29247;BME280;16272;48.188;9.964;2022-12-08T00:14:42;95313.78;;;3.75;65.92
29247;BME280;16272;48.188;9.964;2022-12-08T00:17:09;95305.66;;;3.78;65.51
29247;BME280;16272;48.188;9.964;2022-12-08T00:19:35;95304.47;;;3.82;65.44
29247;BME280;16272;48.188;9.964;2022-12-08T00:22:01;95306.53;;;3.67;66.40
29247;BME280;16272;48.188;9.964;2022-12-08T00:24:33;95303.78;;;3.69;66.04
29247;BME280;16272;48.188;9.964;2022-12-08T00:27:00;95296.75;;;3.70;65.95
29247;BME280;16272;48.188;9.964;2022-12-08T00:29:25;95292.66;;;3.77;65.78
29247;BME280;16272;48.188;9.964;2022-12-08T00:31:51;95288.50;;;3.74;65.31
29247;BME280;16272;48.188;9.964;2022-12-08T00:34:16;95292.75;;;3.86;65.49
29247;BME280;16272;48.188;9.964;2022-12-08T00:36:42;95288.75;;;3.71;65.89
29247;BME280;16272;48.188;9.964;2022-12-08T00:39:08;95279.16;;;3.81;65.29
29247;BME280;16272;48.188;9.964;2022-12-08T00:41:33;95286.09;;;3.82;65.38
29247;BME280;16272;48.188;9.964;2022-12-08T00:44:18;95291.50;;;3.70;65.82
29247;BME280;16272;48.188;9.964;2022-12-08T00:46:44;95281.59;;;3.62;65.94
29247;BME280;16272;48.188;9.964;2022-12-08T00:49:10;95282.28;;;3.64;66.07
29247;BME280;16272;48.188;9.964;2022-12-08T00:51:35;95283.84;;;3.78;65.62
29247;BME280;16272;48.188;9.964;2022-12-08T00:54:01;95278.56;;;3.89;65.52
29247;BME280;16272;48.188;9.964;2022-12-08T00:56:26;95284.22;;;3.62;66.03
29247;BME280;16272;48.188;9.964;2022-12-08T00:58:52;95286.00;;;3.73;65.76
29247;BME280;16272;48.188;9.964;2022-12-08T01:01:17;95284.41;;;3.81;65.68
29247;BME280;16272;48.188;9.964;2022-12-08T01:03:43;95281.75;;;3.93;65.45
29247;BME280;16272;48.188;9.964;2022-12-08T01:06:09;95273.19;;;3.91;65.52
29247;BME280;16272;48.188;9.964;2022-12-08T01:08:35;95273.50;;;3.97;65.45
29247;BME280;16272;48.188;9.964;2022-12-08T01:11:05;95269.56;;;3.92;65.33
29247;BME280;16272;48.188;9.964;2022-12-08T01:13:32;95271.78;;;3.64;66.08
29247;BME280;16272;48.188;9.964;2022-12-08T01:15:57;95264.06;;;3.62;66.10
29247;BME280;16272;48.188;9.964;2022-12-08T01:18:23;95271.06;;;3.73;65.77
29247;BME280;16272;48.188;9.964;2022-12-08T01:20:48;95265.94;;;3.72;66.15
29247;BME280;16272;48.188;9.964;2022-12-08T01:23:13;95268.69;;;3.70;65.40
29247;BME280;16272;48.188;9.964;2022-12-08T01:25:39;95271.78;;;3.64;66.07
29247;BME280;16272;48.188;9.964;2022-12-08T01:28:04;95267.72;;;3.71;66.08
29247;BME280;16272;48.188;9.964;2022-12-08T01:30:30;95263.94;;;3.96;65.22
29247;BME280;16272;48.188;9.964;2022-12-08T01:32:55;95266.59;;;3.85;65.58
29247;BME280;16272;48.188;9.964;2022-12-08T01:35:21;95262.75;;;3.57;66.42
29247;BME280;16272;48.188;9.964;2022-12-08T01:37:46;95262.22;;;3.74;65.97
29247;BME280;16272;48.188;9.964;2022-12-08T01:40:12;95265.31;;;3.79;65.57
29247;BME280;16272;48.188;9.964;2022-12-08T01:42:37;95258.28;;;3.68;65.89
29247;BME280;16272;48.188;9.964;2022-12-08T01:45:05;95259.25;;;3.79;65.55
29247;BME280;16272;48.188;9.964;2022-12-08T01:47:37;95260.78;;;3.70;66.07
29247;BME280;16272;48.188;9.964;2022-12-08T01:50:06;95268.00;;;3.34;67.17
29247;BME280;16272;48.188;9.964;2022-12-08T01:52:37;95263.38;;;3.04;68.40
29247;BME280;16272;48.188;9.964;2022-12-08T01:55:25;95257.28;;;3.26;67.87
29247;BME280;16272;48.188;9.964;2022-12-08T01:57:55;95251.75;;;3.63;66.72
29247;BME280;16272;48.188;9.964;2022-12-08T02:00:23;95249.59;;;3.57;67.14
29247;BME280;16272;48.188;9.964;2022-12-08T02:02:53;95240.44;;;3.51;66.85
29247;BME280;16272;48.188;9.964;2022-12-08T02:05:23;95244.94;;;3.60;66.88
29247;BME280;16272;48.188;9.964;2022-12-08T02:07:50;95245.28;;;3.67;66.18
29247;BME280;16272;48.188;9.964;2022-12-08T02:10:19;95246.06;;;3.35;66.94
29247;BME280;16272;48.188;9.964;2022-12-08T02:12:45;95242.72;;;3.33;67.17
29247;BME280;16272;48.188;9.964;2022-12-08T02:15:11;95243.66;;;3.43;67.03
29247;BME280;16272;48.188;9.964;2022-12-08T02:20:40;95240.72;;;3.80;66.24
29247;BME280;16272;48.188;9.964;2022-12-08T02:33:48;95222.69;;;3.21;67.83
29247;BME280;16272;48.188;9.964;2022-12-08T02:36:30;95221.97;;;3.41;67.47
29247;BME280;16272;48.188;9.964;2022-12-08T02:39:10;95216.84;;;3.72;66.67
29247;BME280;16272;48.188;9.964;2022-12-08T02:42:01;95207.91;;;3.75;66.58
29247;BME280;16272;48.188;9.964;2022-12-08T02:45:05;95201.78;;;3.85;65.93
29247;BME280;16272;48.188;9.964;2022-12-08T02:47:33;95204.38;;;3.64;66.69
29247;BME280;16272;48.188;9.964;2022-12-08T02:49:58;95200.94;;;3.53;66.57
29247;BME280;16272;48.188;9.964;2022-12-08T02:54:52;95201.66;;;3.43;66.97
29247;BME280;16272;48.188;9.964;2022-12-08T03:00:10;95189.53;;;3.20;67.32
29247;BME280;16272;48.188;9.964;2022-12-08T03:08:01;95188.06;;;3.38;66.39
29247;BME280;16272;48.188;9.964;2022-12-08T03:10:35;95178.56;;;3.15;67.80
29247;BME280;16272;48.188;9.964;2022-12-08T03:13:07;95182.50;;;3.09;66.90
29247;BME280;16272;48.188;9.964;2022-12-08T03:15:34;95171.66;;;2.46;68.87
29247;BME280;16272;48.188;9.964;2022-12-08T03:18:03;95170.72;;;2.58;69.25
29247;BME280;16272;48.188;9.964;2022-12-08T03:20:33;95178.56;;;3.03;67.40
29247;BME280;16272;48.188;9.964;2022-12-08T03:23:01;95170.72;;;2.92;67.12
29247;BME280;16272;48.188;9.964;2022-12-08T03:25:31;95165.97;;;2.86;67.64
29247;BME280;16272;48.188;9.964;2022-12-08T03:27:58;95166.44;;;3.02;66.83
29247;BME280;16272;48.188;9.964;2022-12-08T03:30:23;95170.72;;;2.69;67.56
29247;BME280;16272;48.188;9.964;2022-12-08T03:33:01;95167.13;;;2.93;66.58
29247;BME280;16272;48.188;9.964;2022-12-08T03:35:32;95166.31;;;2.70;67.39
29247;BME280;16272;48.188;9.964;2022-12-08T03:38:07;95166.09;;;2.73;67.27
29247;BME280;16272;48.188;9.964;2022-12-08T03:40:33;95166.09;;;2.73;67.15
29247;BME280;16272;48.188;9.964;2022-12-08T03:42:58;95165.94;;;2.52;67.18
29247;BME280;16272;48.188;9.964;2022-12-08T03:45:24;95163.81;;;2.68;66.83
29247;BME280;16272;48.188;9.964;2022-12-08T03:47:50;95160.22;;;2.47;67.62
29247;BME280;16272;48.188;9.964;2022-12-08T03:50:15;95149.13;;;2.32;68.50
29247;BME280;16272;48.188;9.964;2022-12-08T03:52:40;95156.53;;;2.38;67.53
29247;BME280;16272;48.188;9.964;2022-12-08T03:55:06;95159.28;;;2.36;68.17
29247;BME280;16272;48.188;9.964;2022-12-08T03:57:31;95155.94;;;2.57;67.63
29247;BME280;16272;48.188;9.964;2022-12-08T03:59:57;95151.91;;;2.64;67.04
29247;BME280;16272;48.188;9.964;2022-12-08T04:02:22;95147.38;;;2.89;66.54
29247;BME280;16272;48.188;9.964;2022-12-08T04:04:47;95151.41;;;2.70;66.64
29247;BME280;16272;48.188;9.964;2022-12-08T04:07:12;95137.59;;;2.68;66.76
29247;BME280;16272;48.188;9.964;2022-12-08T04:09:38;95144.63;;;2.68;66.39
29247;BME280;16272;48.188;9.964;2022-12-08T04:12:06;95134.84;;;2.81;66.01
29247;BME280;16272;48.188;9.964;2022-12-08T04:14:31;95142.13;;;2.55;66.38
29247;BME280;16272;48.188;9.964;2022-12-08T04:16:56;95143.13;;;2.07;68.03
29247;BME280;16272;48.188;9.964;2022-12-08T04:19:22;95148.31;;;2.31;67.47
29247;BME280;16272;48.188;9.964;2022-12-08T04:21:47;95139.47;;;2.32;67.36
29247;BME280;16272;48.188;9.964;2022-12-08T04:24:12;95142.09;;;2.32;68.03
29247;BME280;16272;48.188;9.964;2022-12-08T04:26:38;95144.97;;;2.41;67.62
29247;BME280;16272;48.188;9.964;2022-12-08T04:29:03;95142.00;;;2.45;66.43
29247;BME280;16272;48.188;9.964;2022-12-08T04:31:28;95144.25;;;2.38;67.23
29247;BME280;16272;48.188;9.964;2022-12-08T04:33:55;95135.66;;;2.14;68.04
29247;BME280;16272;48.188;9.964;2022-12-08T04:36:20;95138.44;;;2.35;67.01
29247;BME280;16272;48.188;9.964;2022-12-08T04:38:45;95136.72;;;2.23;66.48
29247;BME280;16272;48.188;9.964;2022-12-08T04:41:11;95137.81;;;2.20;66.81
29247;BME280;16272;48.188;9.964;2022-12-08T04:43:36;95129.94;;;2.20;66.00
29247;BME280;16272;48.188;9.964;2022-12-08T04:46:05;95134.94;;;2.34;66.66
29247;BME280;16272;48.188;9.964;2022-12-08T04:48:30;95130.66;;;2.22;66.23
29247;BME280;16272;48.188;9.964;2022-12-08T04:50:55;95127.78;;;2.14;66.10
29247;BME280;16272;48.188;9.964;2022-12-08T04:53:21;95128.28;;;2.19;65.56
29247;BME280;16272;48.188;9.964;2022-12-08T04:55:46;95128.72;;;2.13;65.67
29247;BME280;16272;48.188;9.964;2022-12-08T04:58:15;95123.22;;;1.93;66.71
29247;BME280;16272;48.188;9.964;2022-12-08T05:00:41;95123.22;;;1.93;66.45
29247;BME280;16272;48.188;9.964;2022-12-08T05:03:07;95135.78;;;1.77;66.49
29247;BME280;16272;48.188;9.964;2022-12-08T05:05:33;95120.31;;;1.74;66.65
29247;BME280;16272;48.188;9.964;2022-12-08T05:07:58;95125.88;;;1.58;66.58
29247;BME280;16272;48.188;9.964;2022-12-08T05:10:24;95121.22;;;1.61;67.52
29247;BME280;16272;48.188;9.964;2022-12-08T05:12:49;95120.94;;;1.77;66.44
29247;BME280;16272;48.188;9.964;2022-12-08T05:15:15;95123.25;;;1.58;66.91
29247;BME280;16272;48.188;9.964;2022-12-08T05:17:40;95120.56;;;1.71;66.67
29247;BME280;16272;48.188;9.964;2022-12-08T05:20:06;95116.19;;;1.82;66.47
29247;BME280;16272;48.188;9.964;2022-12-08T05:22:31;95116.28;;;1.81;65.47
29247;BME280;16272;48.188;9.964;2022-12-08T05:24:57;95123.69;;;1.87;65.63
29247;BME280;16272;48.188;9.964;2022-12-08T05:27:22;95128.38;;;1.59;65.54
29247;BME280;16272;48.188;9.964;2022-12-08T05:29:47;95122.66;;;1.65;65.98
29247;BME280;16272;48.188;9.964;2022-12-08T05:32:14;95118.66;;;1.73;64.79
29247;BME280;16272;48.188;9.964;2022-12-08T05:34:39;95113.16;;;1.64;65.77
29247;BME280;16272;48.188;9.964;2022-12-08T05:37:05;95113.13;;;1.53;66.48
29247;BME280;16272;48.188;9.964;2022-12-08T05:39:30;95103.66;;;1.75;66.12
29247;BME280;16272;48.188;9.964;2022-12-08T05:41:55;95102.25;;;1.46;66.25
29247;BME280;16272;48.188;9.964;2022-12-08T05:44:21;95102.72;;;1.40;66.80
29247;BME280;16272;48.188;9.964;2022-12-08T05:46:46;95104.88;;;1.22;67.04
29247;BME280;16272;48.188;9.964;2022-12-08T05:49:12;95088.97;;;1.25;67.40
29247;BME280;16272;48.188;9.964;2022-12-08T05:51:37;95100.56;;;1.10;68.07
29247;BME280;16272;48.188;9.964;2022-12-08T05:54:02;95094.44;;;1.22;67.96
29247;BME280;16272;48.188;9.964;2022-12-08T05:56:28;95096.66;;;0.54;69.45
29247;BME280;16272;48.188;9.964;2022-12-08T05:58:53;95104.19;;;0.83;68.58
29247;BME280;16272;48.188;9.964;2022-12-08T06:01:22;95101.44;;;0.98;67.90
29247;BME280;16272;48.188;9.964;2022-12-08T06:03:47;95100.31;;;1.13;67.59
29247;BME280;16272;48.188;9.964;2022-12-08T06:06:13;95095.09;;;1.13;67.88
29247;BME280;16272;48.188;9.964;2022-12-08T06:08:38;95096.00;;;1.01;67.32
29247;BME280;16272;48.188;9.964;2022-12-08T06:11:03;95105.94;;;0.96;67.67
29247;BME280;16272;48.188;9.964;2022-12-08T06:13:29;95110.69;;;0.90;67.38
29247;BME280;16272;48.188;9.964;2022-12-08T06:15:54;95102.44;;;1.08;67.73
29247;BME280;16272;48.188;9.964;2022-12-08T06:18:19;95113.56;;;0.99;67.49
29247;BME280;16272;48.188;9.964;2022-12-08T06:20:45;95103.13;;;0.99;66.56
29247;BME280;16272;48.188;9.964;2022-12-08T06:23:11;95096.75;;;1.14;66.69
29247;BME280;16272;48.188;9.964;2022-12-08T06:25:37;95103.91;;;1.12;66.14
29247;BME280;16272;48.188;9.964;2022-12-08T06:28:04;95109.34;;;1.09;65.72
29247;BME280;16272;48.188;9.964;2022-12-08T06:30:29;95109.88;;;0.77;65.99
29247;BME280;16272;48.188;9.964;2022-12-08T06:32:54;95108.06;;;0.90;66.07
29247;BME280;16272;48.188;9.964;2022-12-08T06:35:20;95106.00;;;1.07;65.87
29247;BME280;16272;48.188;9.964;2022-12-08T06:37:45;95115.34;;;0.98;65.44
29247;BME280;16272;48.188;9.964;2022-12-08T06:40:11;95113.47;;;0.63;66.06
29247;BME280;16272;48.188;9.964;2022-12-08T06:42:36;95108.94;;;0.65;66.27
29247;BME280;16272;48.188;9.964;2022-12-08T06:45:08;95106.97;;;0.69;66.38
29247;BME280;16272;48.188;9.964;2022-12-08T06:47:33;95101.50;;;0.72;65.63
29247;BME280;16272;48.188;9.964;2022-12-08T06:49:59;95107.69;;;0.71;65.35
29247;BME280;16272;48.188;9.964;2022-12-08T06:52:24;95105.94;;;0.59;65.76
29247;BME280;16272;48.188;9.964;2022-12-08T06:54:49;95114.13;;;0.41;66.20
29247;BME280;16272;48.188;9.964;2022-12-08T06:57:15;95111.59;;;0.52;66.92
29247;BME280;16272;48.188;9.964;2022-12-08T06:59:40;95115.97;;;0.65;66.98
29247;BME280;16272;48.188;9.964;2022-12-08T07:02:05;95111.59;;;0.89;65.87
29247;BME280;16272;48.188;9.964;2022-12-08T07:04:31;95109.47;;;0.70;65.79
29247;BME280;16272;48.188;9.964;2022-12-08T07:06:56;95114.56;;;0.72;66.17
29247;BME280;16272;48.188;9.964;2022-12-08T07:09:21;95114.94;;;0.91;65.42
29247;BME280;16272;48.188;9.964;2022-12-08T07:11:47;95115.31;;;0.74;64.69
29247;BME280;16272;48.188;9.964;2022-12-08T07:14:12;95114.44;;;0.86;65.34
29247;BME280;16272;48.188;9.964;2022-12-08T07:16:38;95126.81;;;0.71;65.98
29247;BME280;16272;48.188;9.964;2022-12-08T07:19:04;95126.94;;;0.70;65.79
29247;BME280;16272;48.188;9.964;2022-12-08T07:21:30;95129.47;;;0.96;65.38
29247;BME280;16272;48.188;9.964;2022-12-08T07:23:55;95127.16;;;1.04;65.02
29247;BME280;16272;48.188;9.964;2022-12-08T07:26:20;95132.75;;;0.86;65.85
29247;BME280;16272;48.188;9.964;2022-12-08T07:28:46;95130.69;;;1.03;64.95
29247;BME280;16272;48.188;9.964;2022-12-08T07:31:17;95128.81;;;1.05;65.71
29247;BME280;16272;48.188;9.964;2022-12-08T07:33:43;95132.81;;;0.98;65.85
29247;BME280;16272;48.188;9.964;2022-12-08T07:36:08;95126.19;;;1.05;66.29
29247;BME280;16272;48.188;9.964;2022-12-08T07:38:34;95139.03;;;1.08;65.88
29247;BME280;16272;48.188;9.964;2022-12-08T07:40:59;95130.63;;;0.91;66.64
29247;BME280;16272;48.188;9.964;2022-12-08T07:43:25;95123.81;;;1.02;66.55
29247;BME280;16272;48.188;9.964;2022-12-08T07:45:50;95117.53;;;1.28;65.90
29247;BME280;16272;48.188;9.964;2022-12-08T07:48:16;95127.25;;;1.02;66.32
29247;BME280;16272;48.188;9.964;2022-12-08T07:50:41;95130.69;;;1.03;66.17
29247;BME280;16272;48.188;9.964;2022-12-08T07:53:07;95130.78;;;1.38;66.15
29247;BME280;16272;48.188;9.964;2022-12-08T07:55:33;95129.09;;;1.61;66.02
29247;BME280;16272;48.188;9.964;2022-12-08T07:57:58;95124.50;;;1.52;66.39
29247;BME280;16272;48.188;9.964;2022-12-08T08:00:24;95128.59;;;1.56;66.80
29247;BME280;16272;48.188;9.964;2022-12-08T08:02:49;95126.53;;;1.84;66.10
29247;BME280;16272;48.188;9.964;2022-12-08T08:05:15;95122.91;;;1.74;66.25
29247;BME280;16272;48.188;9.964;2022-12-08T08:07:40;95123.31;;;1.45;67.10
29247;BME280;16272;48.188;9.964;2022-12-08T08:10:08;95126.72;;;1.10;68.93
29247;BME280;16272;48.188;9.964;2022-12-08T08:12:34;95118.13;;;1.08;68.98
29247;BME280;16272;48.188;9.964;2022-12-08T08:15:00;95115.84;;;1.52;68.56
29247;BME280;16272;48.188;9.964;2022-12-08T08:17:26;95123.75;;;1.63;68.00
29247;BME280;16272;48.188;9.964;2022-12-08T08:19:51;95120.56;;;1.82;67.36
29247;BME280;16272;48.188;9.964;2022-12-08T08:22:17;95120.00;;;1.90;67.68
29247;BME280;16272;48.188;9.964;2022-12-08T08:24:42;95122.03;;;1.97;67.27
29247;BME280;16272;48.188;9.964;2022-12-08T08:27:07;95106.56;;;1.94;67.63
29247;BME280;16272;48.188;9.964;2022-12-08T08:29:33;95117.13;;;2.39;66.46
29247;BME280;16272;48.188;9.964;2022-12-08T08:31:58;95117.44;;;2.69;65.03
29247;BME280;16272;48.188;9.964;2022-12-08T08:34:23;95121.16;;;2.55;66.01
29247;BME280;16272;48.188;9.964;2022-12-08T08:36:49;95125.78;;;2.17;67.15
29247;BME280;16272;48.188;9.964;2022-12-08T08:39:14;95119.22;;;2.34;66.73
29247;BME280;16272;48.188;9.964;2022-12-08T08:41:39;95124.97;;;2.28;66.89
29247;BME280;16272;48.188;9.964;2022-12-08T08:44:05;95120.22;;;2.45;66.67
29247;BME280;16272;48.188;9.964;2022-12-08T08:46:31;95125.47;;;2.67;67.23
29247;BME280;16272;48.188;9.964;2022-12-08T08:48:57;95120.91;;;2.69;67.01
29247;BME280;16272;48.188;9.964;2022-12-08T08:51:22;95124.22;;;3.05;65.75
29247;BME280;16272;48.188;9.964;2022-12-08T08:53:48;95119.44;;;2.99;65.56
29247;BME280;16272;48.188;9.964;2022-12-08T08:56:16;95118.16;;;2.82;66.99
29247;BME280;16272;48.188;9.964;2022-12-08T08:58:43;95133.63;;;3.08;65.87
29247;BME280;16272;48.188;9.964;2022-12-08T09:01:17;95126.97;;;3.04;65.91
29247;BME280;16272;48.188;9.964;2022-12-08T09:03:43;95116.47;;;2.92;66.59
29247;BME280;16272;48.188;9.964;2022-12-08T09:06:08;95115.50;;;2.93;66.44
29247;BME280;16272;48.188;9.964;2022-12-08T09:08:34;95118.97;;;3.05;66.12
29247;BME280;16272;48.188;9.964;2022-12-08T09:10:59;95114.09;;;2.89;66.78
29247;BME280;16272;48.188;9.964;2022-12-08T09:13:24;95107.63;;;2.93;67.00
29247;BME280;16272;48.188;9.964;2022-12-08T09:15:50;95108.69;;;3.13;66.49
29247;BME280;16272;48.188;9.964;2022-12-08T09:18:15;95104.78;;;2.97;67.22
29247;BME280;16272;48.188;9.964;2022-12-08T09:20:40;95096.16;;;3.49;65.39
29247;BME280;16272;48.188;9.964;2022-12-08T09:23:06;95104.31;;;3.35;66.59
29247;BME280;16272;48.188;9.964;2022-12-08T09:25:31;95096.75;;;3.53;65.69
29247;BME280;16272;48.188;9.964;2022-12-08T09:27:57;95101.75;;;3.56;65.91
29247;BME280;16272;48.188;9.964;2022-12-08T09:30:22;95102.06;;;3.63;65.63
29247;BME280;16272;48.188;9.964;2022-12-08T09:32:47;95100.16;;;3.65;65.71
29247;BME280;16272;48.188;9.964;2022-12-08T09:35:13;95084.91;;;3.26;66.03
29247;BME280;16272;48.188;9.964;2022-12-08T09:37:38;95083.91;;;3.39;65.93
29247;BME280;16272;48.188;9.964;2022-12-08T09:40:05;95091.41;;;3.43;67.24
29247;BME280;16272;48.188;9.964;2022-12-08T09:45:49;95080.97;;;3.85;65.24
29247;BME280;16272;48.188;9.964;2022-12-08T09:48:35;95075.69;;;3.85;65.77
29247;BME280;16272;48.188;9.964;2022-12-08T09:51:02;95075.09;;;3.40;66.83
29247;BME280;16272;48.188;9.964;2022-12-08T09:56:02;95071.63;;;3.60;66.40
29247;BME280;16272;48.188;9.964;2022-12-08T09:58:50;95062.94;;;3.81;66.23
29247;BME280;16272;48.188;9.964;2022-12-08T10:01:19;95069.78;;;3.72;66.13
29247;BME280;16272;48.188;9.964;2022-12-08T10:03:45;95065.94;;;3.76;65.30
29247;BME280;16272;48.188;9.964;2022-12-08T10:06:19;95063.88;;;3.59;65.96
29247;BME280;16272;48.188;9.964;2022-12-08T10:11:45;95051.88;;;3.77;65.98
29247;BME280;16272;48.188;9.964;2022-12-08T10:17:48;95043.75;;;4.11;65.63
29247;BME280;16272;48.188;9.964;2022-12-08T10:20:17;95040.94;;;4.03;64.98
29247;BME280;16272;48.188;9.964;2022-12-08T10:22:46;95040.06;;;3.93;65.85
29247;BME280;16272;48.188;9.964;2022-12-08T10:25:18;95040.06;;;3.93;66.28
29247;BME280;16272;48.188;9.964;2022-12-08T10:27:47;95032.03;;;4.15;65.45
29247;BME280;16272;48.188;9.964;2022-12-08T10:30:16;95030.53;;;4.22;65.45
29247;BME280;16272;48.188;9.964;2022-12-08T10:32:44;95028.38;;;4.37;64.31
29247;BME280;16272;48.188;9.964;2022-12-08T10:35:13;95030.09;;;4.17;65.13
29247;BME280;16272;48.188;9.964;2022-12-08T10:37:39;95030.53;;;4.22;64.84
29247;BME280;16272;48.188;9.964;2022-12-08T10:42:36;95022.22;;;4.17;65.26
29247;BME280;16272;48.188;9.964;2022-12-08T10:47:28;95017.69;;;3.98;65.50
29247;BME280;16272;48.188;9.964;2022-12-08T10:52:39;95012.03;;;4.34;64.84
29247;BME280;16272;48.188;9.964;2022-12-08T10:55:18;95004.00;;;4.35;64.83
29247;BME280;16272;48.188;9.964;2022-12-08T10:57:44;95009.31;;;4.45;64.79
29247;BME280;16272;48.188;9.964;2022-12-08T11:00:31;95013.41;;;4.88;63.44
29247;BME280;16272;48.188;9.964;2022-12-08T11:03:03;94999.19;;;5.10;62.38
29247;BME280;16272;48.188;9.964;2022-12-08T11:05:34;94999.47;;;5.07;62.18
29247;BME280;16272;48.188;9.964;2022-12-08T11:08:00;94985.53;;;4.56;64.09
29247;BME280;16272;48.188;9.964;2022-12-08T11:10:41;94988.66;;;5.10;62.12
29247;BME280;16272;48.188;9.964;2022-12-08T11:13:18;94983.34;;;4.71;64.32
29247;BME280;16272;48.188;9.964;2022-12-08T11:15:45;94989.25;;;4.54;63.69
29247;BME280;16272;48.188;9.964;2022-12-08T11:21:06;94973.13;;;4.88;64.41
29247;BME280;16272;48.188;9.964;2022-12-08T11:23:35;94974.69;;;5.00;63.70
29247;BME280;16272;48.188;9.964;2022-12-08T11:26:10;94968.69;;;4.98;64.44
29247;BME280;16272;48.188;9.964;2022-12-08T11:28:39;94970.94;;;5.12;62.68
29247;BME280;16272;48.188;9.964;2022-12-08T11:31:20;94969.09;;;5.03;64.50
29247;BME280;16272;48.188;9.964;2022-12-08T11:33:47;94966.19;;;5.36;63.10
29247;BME280;16272;48.188;9.964;2022-12-08T11:36:14;94972.59;;;5.13;63.51
29247;BME280;16272;48.188;9.964;2022-12-08T11:38:43;94969.13;;;5.23;63.46
29247;BME280;16272;48.188;9.964;2022-12-08T11:41:19;94970.66;;;5.06;63.81
29247;BME280;16272;48.188;9.964;2022-12-08T11:46:35;94964.28;;;4.79;64.34
29247;BME280;16272;48.188;9.964;2022-12-08T11:49:08;94971.31;;;4.88;64.78
29247;BME280;16272;48.188;9.964;2022-12-08T11:51:52;94957.19;;;4.70;63.58
29247;BME280;16272;48.188;9.964;2022-12-08T11:54:39;94960.22;;;4.75;63.96
29247;BME280;16272;48.188;9.964;2022-12-08T11:57:11;94956.78;;;4.84;64.39
29247;BME280;16272;48.188;9.964;2022-12-08T11:59:42;94955.13;;;4.83;63.20
29247;BME280;16272;48.188;9.964;2022-12-08T12:02:13;94952.91;;;5.08;63.38
29247;BME280;16272;48.188;9.964;2022-12-08T12:04:45;94947.09;;;5.14;63.38
29247;BME280;16272;48.188;9.964;2022-12-08T12:07:30;94950.97;;;5.10;63.98
29247;BME280;16272;48.188;9.964;2022-12-08T12:18:26;94954.31;;;5.31;63.10
29247;BME280;16272;48.188;9.964;2022-12-08T12:23:34;94938.50;;;5.31;62.71
29247;BME280;16272;48.188;9.964;2022-12-08T12:26:04;94932.50;;;5.49;61.18
29247;BME280;16272;48.188;9.964;2022-12-08T12:28:40;94934.06;;;5.32;62.06
29247;BME280;16272;48.188;9.964;2022-12-08T12:31:09;94940.84;;;5.34;62.41
29247;BME280;16272;48.188;9.964;2022-12-08T12:33:36;94926.56;;;5.27;62.10
29247;BME280;16272;48.188;9.964;2022-12-08T12:36:04;94923.53;;;5.22;62.82
29247;BME280;16272;48.188;9.964;2022-12-08T12:38:49;94921.31;;;5.18;62.79
29247;BME280;16272;48.188;9.964;2022-12-08T12:41:36;94920.47;;;5.37;62.44
29247;BME280;16272;48.188;9.964;2022-12-08T12:57:24;94909.00;;;5.75;58.20
29247;BME280;16272;48.188;9.964;2022-12-08T13:02:30;94904.88;;;5.63;58.67
29247;BME280;16272;48.188;9.964;2022-12-08T13:05:06;94908.91;;;5.57;60.13
29247;BME280;16272;48.188;9.964;2022-12-08T13:07:43;94907.84;;;5.50;59.83
29247;BME280;16272;48.188;9.964;2022-12-08T13:18:38;94903.28;;;5.42;59.11
29247;BME280;16272;48.188;9.964;2022-12-08T13:21:11;94917.41;;;5.51;59.26
29247;BME280;16272;48.188;9.964;2022-12-08T13:29:30;94906.56;;;5.54;58.74
29247;BME280;16272;48.188;9.964;2022-12-08T13:31:57;94901.06;;;5.38;60.27
29247;BME280;16272;48.188;9.964;2022-12-08T13:34:41;94902.00;;;5.56;59.57
29247;BME280;16272;48.188;9.964;2022-12-08T13:44:56;94904.72;;;4.97;59.91
29247;BME280;16272;48.188;9.964;2022-12-08T13:47:41;94900.41;;;5.16;60.01
29247;BME280;16272;48.188;9.964;2022-12-08T13:50:22;94896.41;;;5.22;59.41
29247;BME280;16272;48.188;9.964;2022-12-08T13:55:54;94887.00;;;4.80;59.76
29247;BME280;16272;48.188;9.964;2022-12-08T13:58:38;94889.47;;;5.01;58.81
29247;BME280;16272;48.188;9.964;2022-12-08T14:01:20;94900.00;;;4.91;59.75
29247;BME280;16272;48.188;9.964;2022-12-08T14:03:50;94895.00;;;4.59;60.22
29247;BME280;16272;48.188;9.964;2022-12-08T14:06:34;94892.25;;;4.80;60.51
29247;BME280;16272;48.188;9.964;2022-12-08T14:09:02;94899.72;;;5.04;59.80
29247;BME280;16272;48.188;9.964;2022-12-08T14:11:31;94896.28;;;5.04;59.82
29247;BME280;16272;48.188;9.964;2022-12-08T14:14:15;94886.84;;;5.11;60.05
29247;BME280;16272;48.188;9.964;2022-12-08T14:16:49;94890.56;;;5.18;59.50
29247;BME280;16272;48.188;9.964;2022-12-08T14:19:19;94892.53;;;4.96;60.83
29247;BME280;16272;48.188;9.964;2022-12-08T14:24:31;94903.28;;;5.32;59.31
29247;BME280;16272;48.188;9.964;2022-12-08T14:27:01;94900.28;;;5.08;59.52
29247;BME280;16272;48.188;9.964;2022-12-08T14:32:25;94904.72;;;5.07;60.08
29247;BME280;16272;48.188;9.964;2022-12-08T14:34:53;94888.25;;;5.05;59.79
29247;BME280;16272;48.188;9.964;2022-12-08T14:37:21;94898.50;;;4.99;59.70
29247;BME280;16272;48.188;9.964;2022-12-08T14:39:48;94894.88;;;5.09;59.81
29247;BME280;16272;48.188;9.964;2022-12-08T14:42:25;94899.47;;;4.97;60.90
29247;BME280;16272;48.188;9.964;2022-12-08T14:45:17;94900.41;;;5.16;59.68
29247;BME280;16272;48.188;9.964;2022-12-08T14:47:42;94904.44;;;5.20;59.27
29247;BME280;16272;48.188;9.964;2022-12-08T14:53:00;94900.56;;;4.85;61.17
29247;BME280;16272;48.188;9.964;2022-12-08T14:55:27;94893.38;;;4.87;60.45
29247;BME280;16272;48.188;9.964;2022-12-08T14:57:58;94894.34;;;4.86;60.76
29247;BME280;16272;48.188;9.964;2022-12-08T15:00:24;94891.69;;;4.67;61.48
29247;BME280;16272;48.188;9.964;2022-12-08T15:02:49;94893.09;;;4.90;60.56
29247;BME280;16272;48.188;9.964;2022-12-08T15:05:17;94893.91;;;5.01;59.63
29247;BME280;16272;48.188;9.964;2022-12-08T15:07:49;94891.69;;;4.96;60.10
29247;BME280;16272;48.188;9.964;2022-12-08T15:12:56;94890.34;;;4.82;60.22